logo
Rechercher aéroport 
image banner adimage banner adimage banner ad
image banner ad

EPBO - Borsk

Situé à Borsk, Poland

ICAO - , IATA -

Données fournies par Airmate  

Information générale

Coordonnées: N53°57'4" E17°56'52"
Élévation : 466 feet MSL.
Variation magnétique : 4.0000° East
Voir autres Aéroports à Pomerania

Données opérationnelles

Special qualification required
Heure actuelle UTC:
Heure actuelle locale:
Météo à : EPCE - Cewice ( 53 km )
TAF: TAF EPCE 251100Z 2512/2524 30010KT 9999 SCT035 BECMG 2517/2519 VRB02KT TEMPO 2519/2524 4000 BR NSC PROB30 TEMPO 2521/2524 0500 FG BKN002
Voir NOTAMs / SUP AIP / TFR affectant cet aéroport [VIEW]
Fréquences de communication: [VIEW]

Pistes:

Identifiant RWYQFULongueur (ft)Largeur (ft)SurfaceLDA (ft)
10106°4921131CONC
28286°4921131CONC4921

Coordonnées de l'aéroport

Adresse: Borsk Poland

Vue satellite de EPBO